createdAt,value
2022-11-04T00:00:35.689Z,100439.39
2022-11-04T00:03:05.292Z,100430.86
2022-11-04T00:05:35.601Z,100436.84
2022-11-04T00:08:23.647Z,100438.03
2022-11-04T00:11:16.393Z,100433.08
2022-11-04T00:13:45.503Z,100435.95
2022-11-04T00:16:32.825Z,100435.89
2022-11-04T00:19:01.900Z,100431.13
2022-11-04T00:21:51.740Z,100431.13
2022-11-04T00:24:39.934Z,100429.44
2022-11-04T00:27:29.704Z,100427.09
2022-11-04T00:29:59.659Z,100434.44
2022-11-04T00:32:46.990Z,100431.19
2022-11-04T00:35:19.220Z,100430.86
2022-11-04T00:37:47.979Z,100428.31
2022-11-04T00:40:19.027Z,100427.14
2022-11-04T00:42:48.913Z,100425.44
2022-11-04T00:45:18.075Z,100424.27
2022-11-04T00:47:47.542Z,100426.48
2022-11-04T00:50:17.783Z,100422.89
2022-11-04T00:52:47.642Z,100423.23
2022-11-04T00:55:17.980Z,100423.75
2022-11-04T00:57:46.778Z,100426.67
2022-11-04T01:00:16.452Z,100417.29
2022-11-04T01:02:48.123Z,100425.16
2022-11-04T01:05:17.529Z,100422.76
2022-11-04T01:07:47.418Z,100412.66
2022-11-04T01:10:18.386Z,100425.30
2022-11-04T01:12:47.828Z,100420.35
2022-11-04T01:15:18.326Z,100416.25
2022-11-04T01:17:47.802Z,100414.03
2022-11-04T01:20:17.214Z,100413.19
2022-11-04T01:22:46.075Z,100407.91
2022-11-04T01:25:15.565Z,100412.91
2022-11-04T01:27:44.939Z,100405.41
2022-11-04T01:30:13.981Z,100405.80
2022-11-04T01:32:42.591Z,100411.27
2022-11-04T01:35:12.785Z,100412.82
2022-11-04T01:37:41.472Z,100403.25
2022-11-04T01:40:10.999Z,100405.66
2022-11-04T01:42:41.131Z,100410.14
2022-11-04T01:45:14.497Z,100411.37
2022-11-04T01:47:57.323Z,100411.37
2022-11-04T01:50:29.223Z,100418.72
2022-11-04T01:53:09.936Z,100421.27
2022-11-04T01:55:48.626Z,100416.84
2022-11-04T01:58:18.474Z,100417.88
2022-11-04T02:00:47.279Z,100413.25
2022-11-04T02:03:24.713Z,100418.72
2022-11-04T02:05:54.317Z,100419.05
2022-11-04T02:08:23.004Z,100410.00
2022-11-04T02:11:17.053Z,100411.23
2022-11-04T02:13:45.780Z,100410.37
2022-11-04T02:16:38.400Z,100411.09
2022-11-04T02:19:52.489Z,100407.51
2022-11-04T02:22:35.809Z,100412.64
2022-11-04T02:25:33.329Z,100406.66
2022-11-04T02:28:20.205Z,100400.53
2022-11-04T02:30:59.561Z,100403.64
2022-11-04T02:33:40.152Z,100399.22
2022-11-04T02:36:30.253Z,100396.53
2022-11-04T02:39:04.946Z,100402.00
2022-11-04T02:41:48.106Z,100394.13
2022-11-04T02:44:40.253Z,100394.64
2022-11-04T02:47:19.770Z,100392.62
2022-11-04T02:49:53.710Z,100393.66
2022-11-04T02:52:47.220Z,100387.34
2022-11-04T02:55:20.224Z,100390.41
2022-11-04T02:57:49.827Z,100388.33
2022-11-04T03:00:20.637Z,100394.97
2022-11-04T03:03:04.028Z,100394.78
2022-11-04T03:05:36.931Z,100391.06
2022-11-04T03:08:14.514Z,100395.16
2022-11-04T03:10:45.644Z,100401.67
2022-11-04T03:13:26.937Z,100406.09
2022-11-04T03:16:03.100Z,100405.02
2022-11-04T03:19:01.070Z,100402.27
2022-11-04T03:21:34.562Z,100402.47
2022-11-04T03:24:04.660Z,100401.81
2022-11-04T03:26:59.424Z,100401.67
2022-11-04T03:29:36.354Z,100401.48
2022-11-04T03:32:42.390Z,100404.88
2022-11-04T03:35:11.565Z,100395.16
2022-11-04T03:37:41.249Z,100397.56
2022-11-04T03:40:16.076Z,100400.96
2022-11-04T03:42:49.785Z,100409.16
2022-11-04T03:45:19.595Z,100406.80
2022-11-04T03:47:48.844Z,100403.22
2022-11-04T03:50:30.870Z,100398.60
2022-11-04T03:52:59.566Z,100396.72
2022-11-04T03:55:45.637Z,100395.87
2022-11-04T03:58:47.373Z,100394.36
2022-11-04T04:01:42.905Z,100400.02
2022-11-04T04:04:35.363Z,100396.25
2022-11-04T04:07:15.430Z,100391.62
2022-11-04T04:10:37.296Z,100394.88
2022-11-04T04:13:48.825Z,100395.07
2022-11-04T04:16:28.512Z,100394.93
2022-11-04T04:19:23.947Z,100396.31
2022-11-04T04:21:58.221Z,100402.48
2022-11-04T04:24:50.495Z,100401.11
2022-11-04T04:27:32.974Z,100398.57
2022-11-04T04:30:13.923Z,100402.67
2022-11-04T04:32:46.769Z,100402.86
2022-11-04T04:35:34.649Z,100403.70
2022-11-04T04:38:24.326Z,100410.06
2022-11-04T04:41:36.942Z,100412.80
2022-11-04T04:44:38.963Z,100413.65
2022-11-04T04:47:08.887Z,100415.91
2022-11-04T04:49:37.787Z,100413.55
2022-11-04T04:52:08.186Z,100413.03
2022-11-04T04:54:36.944Z,100410.11
2022-11-04T04:57:05.974Z,100408.41
2022-11-04T04:59:34.783Z,100413.92
2022-11-04T05:02:03.729Z,100410.53
2022-11-04T05:04:40.334Z,100413.97
2022-11-04T05:07:17.200Z,100415.33
2022-11-04T05:09:51.646Z,100413.30
2022-11-04T05:12:26.940Z,100418.77
2022-11-04T05:15:03.869Z,100415.38
2022-11-04T05:17:39.499Z,100422.02
2022-11-04T05:20:15.856Z,100422.02
2022-11-04T05:22:51.878Z,100418.06
2022-11-04T05:25:26.987Z,100423.48
2022-11-04T05:28:05.207Z,100429.28
2022-11-04T05:30:40.780Z,100431.50
2022-11-04T05:33:15.953Z,100431.31
2022-11-04T05:35:50.873Z,100439.18
2022-11-04T05:38:26.687Z,100441.44
2022-11-04T05:41:02.269Z,100441.62
2022-11-04T05:43:37.591Z,100446.05
2022-11-04T05:46:12.553Z,100446.90
2022-11-04T05:48:48.684Z,100454.72
2022-11-04T05:51:22.407Z,100452.14
2022-11-04T05:53:58.664Z,100452.28
2022-11-04T05:56:32.920Z,100454.31
2022-11-04T05:59:28.847Z,100450.58
2022-11-04T06:02:04.383Z,100458.64
2022-11-04T06:04:43.102Z,100457.83
2022-11-04T06:07:19.158Z,100460.37
2022-11-04T06:10:14.507Z,100465.33
2022-11-04T06:12:49.944Z,100457.31
2022-11-04T06:15:26.828Z,100462.92
2022-11-04T06:18:02.695Z,100465.98
2022-11-04T06:20:32.567Z,100465.47
2022-11-04T06:23:07.478Z,100461.00
2022-11-04T06:25:44.156Z,100454.69
2022-11-04T06:28:22.800Z,100460.63
2022-11-04T06:30:59.671Z,100460.44
2022-11-04T06:33:36.965Z,100462.33
2022-11-04T06:36:13.175Z,100459.92
2022-11-04T06:38:49.297Z,100460.59
2022-11-04T06:41:26.016Z,100460.39
2022-11-04T06:44:02.519Z,100465.49
2022-11-04T06:46:45.670Z,100468.22
2022-11-04T06:49:22.027Z,100469.20
2022-11-04T06:51:58.332Z,100463.27
2022-11-04T06:54:33.549Z,100468.23
2022-11-04T06:57:09.631Z,100463.78
2022-11-04T06:59:44.907Z,100469.73
2022-11-04T07:02:23.738Z,100455.49
2022-11-04T07:05:01.209Z,100460.07
2022-11-04T07:07:36.649Z,100459.69
2022-11-04T07:10:14.820Z,100457.95
2022-11-04T07:12:55.264Z,100454.84
2022-11-04T07:15:35.177Z,100463.70
2022-11-04T07:18:11.905Z,100463.33
2022-11-04T07:20:46.059Z,100466.72
2022-11-04T07:23:20.966Z,100461.91
2022-11-04T07:26:00.118Z,100466.67
2022-11-04T07:28:46.050Z,100459.12
2022-11-04T07:31:17.812Z,100456.86
2022-11-04T07:33:48.696Z,100461.77
2022-11-04T07:36:18.222Z,100467.89
2022-11-04T07:38:47.293Z,100462.38
2022-11-04T07:41:16.400Z,100460.63
2022-11-04T07:43:51.418Z,100463.69
2022-11-04T07:46:20.404Z,100465.72
2022-11-04T07:48:50.573Z,100454.91
2022-11-04T07:51:20.545Z,100464.11
2022-11-04T07:53:51.216Z,100460.83
2022-11-04T07:56:20.942Z,100460.25
2022-11-04T07:58:50.736Z,100457.98
2022-11-04T08:01:24.821Z,100449.91
2022-11-04T08:03:55.421Z,100448.67
2022-11-04T08:06:23.940Z,100437.34
2022-11-04T08:08:53.684Z,100446.15
2022-11-04T08:11:25.702Z,100447.66
2022-11-04T08:13:55.681Z,100450.47
2022-11-04T08:16:31.403Z,100449.55
2022-11-04T08:18:58.946Z,100457.91
2022-11-04T08:21:28.879Z,100453.60
2022-11-04T08:23:59.512Z,100451.91
2022-11-04T08:26:29.450Z,100460.64
2022-11-04T08:28:59.154Z,100450.87
2022-11-04T08:31:30.723Z,100454.78
2022-11-04T08:34:01.040Z,100461.30
2022-11-04T08:36:34.274Z,100461.10
2022-11-04T08:39:10.710Z,100453.73
2022-11-04T08:41:37.442Z,100454.42
2022-11-04T08:44:09.768Z,100454.23
2022-11-04T08:46:39.727Z,100450.45
2022-11-04T08:49:12.836Z,100454.36
2022-11-04T08:51:44.165Z,100449.54
2022-11-04T08:54:13.195Z,100449.87
2022-11-04T08:56:46.476Z,100446.02
2022-11-04T08:59:19.265Z,100448.37
2022-11-04T09:01:49.177Z,100454.83
2022-11-04T09:04:19.299Z,100455.84
2022-11-04T09:06:50.421Z,100452.38
2022-11-04T09:09:19.020Z,100454.59
2022-11-04T09:11:49.236Z,100450.69
2022-11-04T09:14:20.835Z,100452.45
2022-11-04T09:16:49.342Z,100454.17
2022-11-04T09:19:20.883Z,100453.72
2022-11-04T09:21:50.365Z,100462.26
2022-11-04T09:24:20.329Z,100453.72
2022-11-04T09:26:51.363Z,100448.43
2022-11-04T09:29:22.204Z,100451.56
2022-11-04T09:31:57.066Z,100446.80
2022-11-04T09:34:32.485Z,100451.56
2022-11-04T09:37:07.259Z,100446.41
2022-11-04T09:39:38.564Z,100451.23
2022-11-04T09:42:21.805Z,100444.45
2022-11-04T09:45:20.593Z,100449.60
2022-11-04T09:47:33.332Z,100450.31
2022-11-04T09:50:02.447Z,100444.34
2022-11-04T09:52:37.080Z,100453.60
2022-11-04T09:55:41.876Z,100452.43
2022-11-04T09:58:13.631Z,100449.03
2022-11-04T10:00:46.687Z,100442.58
2022-11-04T10:03:31.631Z,100444.99
2022-11-04T10:06:37.448Z,100447.59
2022-11-04T10:09:23.237Z,100451.95
2022-11-04T10:12:05.266Z,100443.94
2022-11-04T10:14:51.121Z,100447.91
2022-11-04T10:18:02.825Z,100441.39
2022-11-04T10:20:43.473Z,100440.34
2022-11-04T10:23:45.539Z,100444.32
2022-11-04T10:26:32.224Z,100441.83
2022-11-04T10:29:06.125Z,100440.52
2022-11-04T10:31:36.788Z,100429.77
2022-11-04T10:34:15.024Z,100433.34
2022-11-04T10:36:43.964Z,100431.00
2022-11-04T10:39:18.010Z,100434.45
2022-11-04T10:41:47.329Z,100434.64
2022-11-04T10:44:28.974Z,100433.80
2022-11-04T10:47:11.038Z,100427.66
2022-11-04T10:50:26.421Z,100422.52
2022-11-04T10:52:27.669Z,100418.94
2022-11-04T10:54:58.590Z,100426.43
2022-11-04T10:57:27.897Z,100416.14
2022-11-04T10:59:59.908Z,100416.93
2022-11-04T11:02:49.175Z,100411.92
2022-11-04T11:05:23.386Z,100411.73
2022-11-04T11:07:55.784Z,100406.91
2022-11-04T11:10:32.698Z,100406.39
2022-11-04T11:13:07.793Z,100409.26
2022-11-04T11:15:39.083Z,100407.17
2022-11-04T11:18:17.501Z,100404.24
2022-11-04T11:20:54.514Z,100399.29
2022-11-04T11:23:39.154Z,100401.18
2022-11-04T11:26:17.056Z,100398.44
2022-11-04T11:28:59.652Z,100394.80
2022-11-04T11:31:48.776Z,100397.14
2022-11-04T11:34:27.034Z,100401.91
2022-11-04T11:36:56.307Z,100397.73
2022-11-04T11:39:38.503Z,100398.38
2022-11-04T11:42:15.425Z,100401.25
2022-11-04T11:44:51.608Z,100396.82
2022-11-04T11:47:31.864Z,100403.99
2022-11-04T11:50:18.965Z,100394.73
2022-11-04T11:52:49.353Z,100393.50
2022-11-04T11:55:33.292Z,100403.08
2022-11-04T12:01:24.091Z,100395.58
2022-11-04T12:09:43.691Z,100380.27
2022-11-04T12:12:27.306Z,100384.05
2022-11-04T12:15:27.411Z,100378.57
2022-11-04T12:18:50.298Z,100379.42
2022-11-04T12:21:29.935Z,100379.22
2022-11-04T12:24:16.839Z,100373.36
2022-11-04T12:26:54.050Z,100374.69
2022-11-04T12:29:45.779Z,100375.90
2022-11-04T12:32:29.192Z,100372.44
2022-11-04T12:35:11.101Z,100379.97
2022-11-04T12:37:54.479Z,100379.45
2022-11-04T12:41:27.636Z,100377.56
2022-11-04T12:43:35.676Z,100374.33
2022-11-04T12:46:41.622Z,100376.74
2022-11-04T12:49:28.722Z,100374.40
2022-11-04T12:52:18.420Z,100382.16
2022-11-04T12:54:58.734Z,100386.98
2022-11-04T12:57:41.375Z,100388.87
2022-11-04T13:00:15.183Z,100389.19
2022-11-04T13:03:00.309Z,100394.67
2022-11-04T13:06:14.610Z,100391.08
2022-11-04T13:09:13.093Z,100395.06
2022-11-04T13:12:02.743Z,100395.97
2022-11-04T13:15:29.082Z,100393.09
2022-11-04T13:18:19.259Z,100389.52
2022-11-04T13:21:09.398Z,100390.55
2022-11-04T13:23:53.378Z,100390.55
2022-11-04T13:26:35.879Z,100381.11
2022-11-04T13:29:25.928Z,100392.64
2022-11-04T13:32:22.493Z,100392.77
2022-11-04T13:35:32.450Z,100385.93
2022-11-04T13:38:21.048Z,100391.73
2022-11-04T13:41:48.351Z,100388.28
2022-11-04T13:44:49.178Z,100389.98
2022-11-04T13:47:31.848Z,100391.92
2022-11-04T13:50:05.345Z,100390.55
2022-11-04T13:52:37.531Z,100392.64
2022-11-04T13:55:10.638Z,100393.55
2022-11-04T13:58:09.249Z,100388.59
2022-11-04T14:04:18.891Z,100397.33
2022-11-04T14:07:06.931Z,100396.48
2022-11-04T14:09:55.644Z,100404.17
2022-11-04T14:12:55.849Z,100404.23
2022-11-04T14:16:20.444Z,100406.31
2022-11-04T14:19:04.442Z,100404.48
2022-11-04T14:22:07.447Z,100411.84
2022-11-04T14:24:40.213Z,100408.45
2022-11-04T14:27:47.781Z,100409.49
2022-11-04T14:30:59.428Z,100412.23
2022-11-04T14:34:02.059Z,100411.19
2022-11-04T14:36:53.151Z,100411.57
2022-11-04T14:39:30.150Z,100406.13
2022-11-04T14:42:06.560Z,100405.98
2022-11-04T14:44:58.456Z,100408.40
2022-11-04T14:47:43.843Z,100411.66
2022-11-04T14:50:24.831Z,100411.33
2022-11-04T14:53:07.258Z,100413.41
2022-11-04T14:55:52.456Z,100414.45
2022-11-04T15:01:41.870Z,100415.16
2022-11-04T15:04:29.688Z,100416.91
2022-11-04T15:07:11.341Z,100417.81
2022-11-04T15:10:00.314Z,100417.67
2022-11-04T15:13:15.115Z,100413.95
2022-11-04T15:19:52.408Z,100415.37
2022-11-04T15:22:42.136Z,100415.94
2022-11-04T15:32:20.378Z,100414.57
2022-11-04T15:35:28.388Z,100412.03
2022-11-04T15:38:06.329Z,100416.84
2022-11-04T15:40:59.475Z,100418.72
2022-11-04T15:43:30.977Z,100418.58
2022-11-04T15:46:01.691Z,100417.36
2022-11-04T15:48:39.797Z,100416.31
2022-11-04T15:51:19.597Z,100418.20
2022-11-04T15:53:58.435Z,100423.30
2022-11-04T15:56:37.480Z,100426.36
2022-11-04T15:59:20.810Z,100417.64
2022-11-04T16:01:58.883Z,100414.70
2022-11-04T16:04:28.674Z,100417.39
2022-11-04T16:07:18.423Z,100418.76
2022-11-04T16:09:56.344Z,100414.66
2022-11-04T16:12:37.637Z,100418.44
2022-11-04T16:15:09.544Z,100415.37
2022-11-04T16:17:43.858Z,100419.14
2022-11-04T16:20:17.588Z,100422.53
2022-11-04T16:22:47.616Z,100420.13
2022-11-04T16:25:22.948Z,100418.76
2022-11-04T16:27:52.388Z,100417.25
2022-11-04T16:30:25.451Z,100420.32
2022-11-04T16:32:55.832Z,100425.27
2022-11-04T16:35:27.568Z,100429.05
2022-11-04T16:37:59.260Z,100430.73
2022-11-04T16:40:28.218Z,100424.56
2022-11-04T16:42:57.688Z,100425.27
2022-11-04T16:45:35.110Z,100420.51
2022-11-04T16:48:04.754Z,100419.85
2022-11-04T16:50:33.971Z,100419.33
2022-11-04T16:53:03.513Z,100423.77
2022-11-04T16:55:32.587Z,100419.14
2022-11-04T16:58:02.794Z,100421.50
2022-11-04T17:00:33.049Z,100422.86
2022-11-04T17:03:05.017Z,100422.53
2022-11-04T17:05:33.717Z,100421.22
2022-11-04T17:08:06.156Z,100424.99
2022-11-04T17:10:36.797Z,100423.63
2022-11-04T17:13:09.455Z,100423.77
2022-11-04T17:15:39.549Z,100420.18
2022-11-04T17:18:16.441Z,100425.12
2022-11-04T17:20:49.104Z,100420.37
2022-11-04T17:23:18.720Z,100420.70
2022-11-04T17:25:49.491Z,100426.83
2022-11-04T17:28:18.561Z,100423.05
2022-11-04T17:30:47.985Z,100425.59
2022-11-04T17:33:17.874Z,100433.14
2022-11-04T17:35:49.800Z,100423.24
2022-11-04T17:38:19.936Z,100423.30
2022-11-04T17:41:07.887Z,100420.56
2022-11-04T17:43:55.530Z,100416.98
2022-11-04T17:46:33.833Z,100417.55
2022-11-04T17:49:05.746Z,100416.04
2022-11-04T17:51:35.062Z,100416.94
2022-11-04T17:54:05.241Z,100425.84
2022-11-04T17:56:35.293Z,100415.43
2022-11-04T17:59:04.354Z,100424.48
2022-11-04T18:01:36.354Z,100423.44
2022-11-04T18:04:05.875Z,100421.56
2022-11-04T18:06:35.801Z,100417.83
2022-11-04T18:09:05.109Z,100425.19
2022-11-04T18:11:54.991Z,100432.68
2022-11-04T18:14:24.634Z,100423.11
2022-11-04T18:16:54.525Z,100423.44
2022-11-04T18:19:25.546Z,100436.08
2022-11-04T18:21:57.042Z,100434.38
2022-11-04T18:24:26.839Z,100436.27
2022-11-04T18:26:59.062Z,100425.00
2022-11-04T18:29:27.925Z,100427.41
2022-11-04T18:31:56.790Z,100420.09
2022-11-04T18:34:26.332Z,100424.20
2022-11-04T18:36:57.108Z,100427.27
2022-11-04T18:39:26.838Z,100425.70
2022-11-04T18:41:56.490Z,100432.54
2022-11-04T18:44:25.108Z,100434.23
2022-11-04T18:46:54.650Z,100430.98
2022-11-04T18:49:24.762Z,100427.41
2022-11-04T18:51:53.954Z,100424.20
2022-11-04T18:54:22.900Z,100421.98
2022-11-04T18:56:52.430Z,100422.12
2022-11-04T18:59:21.454Z,100430.00
2022-11-04T19:01:52.075Z,100430.00
2022-11-04T19:04:21.148Z,100426.93
2022-11-04T19:06:49.866Z,100428.62
2022-11-04T19:11:51.522Z,100435.84
2022-11-04T19:14:20.230Z,100435.52
2022-11-04T19:16:50.185Z,100433.30
2022-11-04T19:19:20.443Z,100444.23
2022-11-04T19:21:50.299Z,100441.69
2022-11-04T19:24:19.384Z,100443.75
2022-11-04T19:26:50.011Z,100441.55
2022-11-04T19:29:19.165Z,100444.79
2022-11-04T19:31:49.489Z,100446.16
2022-11-04T19:34:18.672Z,100448.23
2022-11-04T19:36:47.891Z,100450.63
2022-11-04T19:39:17.299Z,100451.67
2022-11-04T19:42:05.973Z,100453.05
2022-11-04T19:44:35.706Z,100458.19
2022-11-04T19:47:05.750Z,100460.06
2022-11-04T19:49:34.385Z,100456.48
2022-11-04T19:52:04.243Z,100457.52
2022-11-04T19:54:33.479Z,100457.19
2022-11-04T19:57:03.336Z,100452.05
2022-11-04T19:59:32.863Z,100454.45
2022-11-04T20:02:03.013Z,100459.22
2022-11-04T20:04:32.250Z,100457.66
2022-11-04T20:07:01.855Z,100455.78
2022-11-04T20:09:30.818Z,100458.84
2022-11-04T20:12:19.628Z,100452.02
2022-11-04T20:14:48.981Z,100455.45
2022-11-04T20:17:18.504Z,100467.27
2022-11-04T20:19:49.067Z,100463.17
2022-11-04T20:22:18.871Z,100461.81
2022-11-04T20:24:48.875Z,100471.89
2022-11-04T20:27:18.821Z,100471.23
2022-11-04T20:29:50.469Z,100471.23
2022-11-04T20:32:23.477Z,100471.41
2022-11-04T20:34:53.592Z,100474.00
2022-11-04T20:37:25.281Z,100474.70
2022-11-04T20:39:56.574Z,100475.73
2022-11-04T20:42:25.562Z,100479.36
2022-11-04T20:44:57.081Z,100484.16
2022-11-04T20:47:28.211Z,100486.74
2022-11-04T20:49:57.162Z,100482.50
2022-11-04T20:52:26.281Z,100479.43
2022-11-04T20:54:57.071Z,100479.95
2022-11-04T20:57:27.670Z,100484.75
2022-11-04T20:59:56.559Z,100487.14
2022-11-04T21:02:25.936Z,100487.14
2022-11-04T21:04:56.260Z,100487.14
2022-11-04T21:07:26.866Z,100491.06
2022-11-04T21:09:57.394Z,100495.67
2022-11-04T21:12:27.957Z,100483.56
2022-11-04T21:14:58.597Z,100482.05
2022-11-04T21:17:28.453Z,100486.00
2022-11-04T21:19:59.608Z,100477.36
2022-11-04T21:22:28.462Z,100478.75
2022-11-04T21:24:57.890Z,100479.12
2022-11-04T21:27:27.712Z,100473.69
2022-11-04T21:29:58.184Z,100479.55
2022-11-04T21:32:27.140Z,100479.06
2022-11-04T21:34:56.322Z,100479.60
2022-11-04T21:37:26.435Z,100479.30
2022-11-04T21:39:55.565Z,100485.12
2022-11-04T21:42:25.560Z,100479.17
2022-11-04T21:44:56.463Z,100479.02
2022-11-04T21:47:25.304Z,100478.70
2022-11-04T21:49:55.222Z,100473.79
2022-11-04T21:52:24.201Z,100479.27
2022-11-04T21:54:53.464Z,100470.77
2022-11-04T21:57:25.810Z,100469.92
2022-11-04T21:59:54.552Z,100471.47
2022-11-04T22:02:23.854Z,100468.59
2022-11-04T22:04:53.101Z,100474.58
2022-11-04T22:07:24.179Z,100472.72
2022-11-04T22:09:54.990Z,100478.19
2022-11-04T22:12:24.695Z,100479.92
2022-11-04T22:14:54.262Z,100483.02
2022-11-04T22:17:23.059Z,100481.67
2022-11-04T22:19:53.072Z,100481.00
2022-11-04T22:22:21.911Z,100489.87
2022-11-04T22:24:53.304Z,100491.41
2022-11-04T22:27:22.231Z,100485.61
2022-11-04T22:29:51.208Z,100496.02
2022-11-04T22:32:21.136Z,100492.47
2022-11-04T22:34:49.731Z,100501.34
2022-11-04T22:37:20.072Z,100502.38
2022-11-04T22:39:49.120Z,100498.14
2022-11-04T22:42:18.242Z,100497.47
2022-11-04T22:44:49.158Z,100496.77
2022-11-04T22:47:18.235Z,100497.11
2022-11-04T22:49:48.146Z,100501.03
2022-11-04T22:52:17.425Z,100504.27
2022-11-04T22:54:47.179Z,100508.02
2022-11-04T22:57:16.126Z,100505.98
2022-11-04T22:59:45.496Z,100509.22
2022-11-04T23:02:15.498Z,100511.95
2022-11-04T23:04:45.152Z,100509.91
2022-11-04T23:07:13.897Z,100513.82
2022-11-04T23:10:01.194Z,100526.42
2022-11-04T23:12:50.076Z,100519.95
2022-11-04T23:15:38.210Z,100523.19
2022-11-04T23:18:29.622Z,100523.02
2022-11-04T23:21:17.394Z,100527.09
2022-11-04T23:24:04.805Z,100530.33
2022-11-04T23:26:34.604Z,100529.64
2022-11-04T23:29:22.602Z,100534.57
2022-11-04T23:31:53.904Z,100535.39
2022-11-04T23:34:41.655Z,100534.87
2022-11-04T23:37:14.436Z,100531.13
2022-11-04T23:39:49.166Z,100537.92
2022-11-04T23:42:20.598Z,100530.60
2022-11-04T23:45:11.557Z,100545.05
2022-11-04T23:48:02.970Z,100540.97
2022-11-04T23:50:53.643Z,100547.09
2022-11-04T23:53:41.407Z,100551.17
2022-11-04T23:56:29.141Z,100552.53
2022-11-04T23:59:17.989Z,100546.40
